Time;durP1;ratioP1;P1;durP2;ratioP2;P2;SDS_P1;SDS_P2;PMS_P1;PMS_P2;Temp;Humidity;BMP_temperature;BMP_pressure;BME280_temperature;BME280_humidity;BME280_pressure;Samples;Min_cycle;Max_cycle;Signal;HPM_P1;HPM_P2
2021/09/27 00:01:20;;;;;;;19.83;13.35;;;16.50;99.90;;;17.64;100.00;100541.75;6037455;23;19999;-89
2021/09/27 00:03:47;;;;;;;17.10;13.07;;;16.50;99.90;;;17.59;100.00;100558.31;6036637;23;20007;-89
2021/09/27 00:06:15;;;;;;;17.15;12.75;;;16.50;99.90;;;17.63;100.00;100556.28;6063520;23;20038;-89
2021/09/27 00:08:42;;;;;;;20.40;13.52;;;16.50;99.90;;;17.55;100.00;100549.84;6038491;23;20094;-88
2021/09/27 00:11:24;;;;;;;18.05;13.77;;;16.50;99.90;;;17.51;100.00;100546.19;6058660;23;20038;-89
2021/09/27 00:14:00;;;;;;;16.90;12.65;;;16.40;99.90;;;17.53;100.00;100543.75;6037117;23;20458;-88
2021/09/27 00:16:28;;;;;;;17.35;13.80;;;16.40;99.90;;;17.49;100.00;100545.00;6034472;23;20015;-88
2021/09/27 00:18:54;;;;;;;14.00;12.50;;;16.40;99.90;;;17.42;100.00;100545.00;6057130;23;20023;-89
2021/09/27 00:21:32;;;;;;;17.25;12.43;;;16.40;99.90;;;17.46;100.00;100543.81;6059223;23;20029;-89
2021/09/27 00:24:01;;;;;;;16.95;12.82;;;16.40;99.90;;;17.47;100.00;100547.41;6060145;23;20016;-89
2021/09/27 00:26:30;;;;;;;19.70;13.55;;;16.40;99.90;;;17.41;100.00;100549.84;6060183;23;20011;-88
2021/09/27 00:28:56;;;;;;;16.60;12.98;;;16.40;99.90;;;17.42;100.00;100553.47;6052997;23;20066;-87
2021/09/27 00:31:22;;;;;;;18.77;12.93;;;16.30;99.90;;;17.36;100.00;100548.25;6051771;23;20094;-90
2021/09/27 00:33:49;;;;;;;15.32;12.77;;;16.30;99.90;;;17.36;100.00;100553.91;6025130;23;20011;-88
2021/09/27 00:36:21;;;;;;;15.93;12.50;;;16.20;99.90;;;17.38;100.00;100545.03;6026051;23;20018;-90
2021/09/27 00:38:48;;;;;;;16.63;12.45;;;16.30;99.90;;;17.32;100.00;100535.34;6022678;23;20449;-88
2021/09/27 00:41:19;;;;;;;17.95;13.15;;;16.20;99.90;;;17.34;100.00;100550.66;6023087;23;20011;-88
2021/09/27 00:43:48;;;;;;;17.17;13.07;;;16.20;99.90;;;17.36;100.00;100548.25;6025537;23;20015;-88
2021/09/27 00:46:22;;;;;;;16.15;12.40;;;16.20;99.90;;;17.34;100.00;100539.38;6049854;23;20110;-88
2021/09/27 00:48:49;;;;;;;15.48;11.55;;;16.20;99.90;;;17.36;100.00;100530.50;6027907;23;20018;-90
2021/09/27 00:51:28;;;;;;;18.85;12.68;;;16.20;99.90;;;17.28;100.00;100537.38;6050358;23;20015;-88
2021/09/27 00:54:12;;;;;;;16.17;11.55;;;16.10;99.90;;;17.25;100.00;100526.91;6051823;23;20019;-87
2021/09/27 00:56:49;;;;;;;16.02;12.43;;;16.10;99.90;;;17.18;100.00;100532.56;6060617;23;20008;-89
2021/09/27 00:59:17;;;;;;;15.00;12.13;;;16.00;99.90;;;17.10;100.00;100534.59;6037900;23;20019;-90
2021/09/27 01:01:44;;;;;;;17.55;13.90;;;16.00;99.90;;;17.01;100.00;100522.13;6038727;23;20000;-88
2021/09/27 01:04:11;;;;;;;18.25;12.07;;;16.00;99.90;;;17.09;100.00;100530.16;6034783;23;20015;-88
2021/09/27 01:07:30;;;;;;;13.35;10.90;;;16.00;99.90;;;17.17;100.00;100526.13;6034690;23;20021;-90
2021/09/27 01:10:50;;;;;;;15.43;11.73;;;16.00;99.90;;;17.22;100.00;100531.34;6038340;23;20070;-89
2021/09/27 01:13:53;;;;;;;14.90;11.05;;;16.00;99.90;;;17.18;100.00;100527.72;6037135;23;20015;-89
2021/09/27 01:17:04;;;;;;;14.07;10.68;;;16.00;99.90;;;17.11;100.00;100519.28;6039177;23;20011;-88
2021/09/27 01:20:03;;;;;;;14.40;10.75;;;16.00;99.90;;;17.13;100.00;100527.34;6061121;23;20039;-89
2021/09/27 01:22:50;;;;;;;14.45;10.95;;;15.90;99.90;;;17.08;100.00;100530.56;6037393;23;20098;-89
2021/09/27 01:26:29;;;;;;;15.95;11.32;;;15.90;99.90;;;17.09;100.00;100524.50;6039413;23;20043;-89
2021/09/27 01:30:14;;;;;;;14.80;10.38;;;15.80;99.90;;;17.06;100.00;100527.34;6039457;23;20160;-90
2021/09/27 01:32:48;;;;;;;16.02;11.07;;;15.80;99.90;;;16.99;100.00;100527.34;6036941;23;20003;-90
2021/09/27 01:35:50;;;;;;;13.40;10.27;;;15.90;99.90;;;16.98;100.00;100518.09;6062431;23;20026;-90
2021/09/27 01:38:53;;;;;;;16.20;10.43;;;15.90;99.90;;;17.05;100.00;100525.75;6036341;23;19995;-89
2021/09/27 01:41:59;;;;;;;13.50;9.93;;;15.80;99.90;;;17.04;100.00;100527.75;6038006;23;20044;-91
2021/09/27 01:44:35;;;;;;;13.27;10.50;;;15.80;99.90;;;17.00;100.00;100534.59;6045198;23;20203;-90
2021/09/27 01:47:17;;;;;;;12.93;10.80;;;15.80;99.90;;;16.99;100.00;100528.16;6060020;23;20075;-90
2021/09/27 01:50:15;;;;;;;14.38;10.23;;;15.80;99.90;;;17.06;100.00;100532.97;6062622;23;20022;-89
2021/09/27 01:53:22;;;;;;;13.85;10.35;;;15.90;99.90;;;17.09;100.00;100530.16;6058159;23;19999;-90
2021/09/27 01:56:32;;;;;;;17.80;11.30;;;15.90;99.90;;;17.05;100.00;100520.09;6061011;23;20003;-88
2021/09/27 01:59:30;;;;;;;13.23;9.70;;;15.80;99.90;;;16.92;100.00;100525.31;6061283;23;20031;-88
2021/09/27 14:01:51;;;;;;;4.85;1.92;;;20.80;99.90;;;21.74;74.10;100305.94;6045800;23;20027;31
2021/09/27 14:04:17;;;;;;;4.20;2.10;;;20.70;99.90;;;21.67;74.79;100326.84;5955245;24;20457;-88
2021/09/27 14:06:43;;;;;;;3.50;2.20;;;20.70;99.90;;;21.62;75.11;100318.81;5955948;24;20008;-86
2021/09/27 14:09:11;;;;;;;3.78;2.08;;;20.60;99.90;;;21.59;75.46;100327.41;5957993;24;20081;-87
2021/09/27 14:11:37;;;;;;;5.03;2.30;;;20.60;99.90;;;21.60;75.73;100340.41;5957710;24;20072;-87
2021/09/27 14:14:05;;;;;;;2.15;1.90;;;20.60;99.90;;;21.65;75.78;100332.13;5983929;24;20012;-87
2021/09/27 14:16:32;;;;;;;4.85;1.90;;;20.50;99.90;;;21.62;75.98;100337.91;5960921;24;20048;-88
2021/09/27 14:18:58;;;;;;;5.00;2.00;;;20.50;99.90;;;21.62;76.32;100329.38;5983818;24;20008;-89
2021/09/27 14:21:27;;;;;;;2.72;2.08;;;20.50;99.90;;;21.45;76.87;100317.16;5984540;24;20008;-84
2021/09/27 14:24:00;;;;;;;4.95;2.10;;;20.40;99.90;;;21.47;76.56;100326.06;5983999;24;20008;-86
2021/09/27 14:26:33;;;;;;;3.75;2.17;;;20.40;99.90;;;21.49;76.40;100324.38;5960677;24;20063;-87
2021/09/27 14:29:00;;;;;;;3.40;1.90;;;20.40;99.90;;;21.44;76.49;100327.75;5985661;24;20084;-87
2021/09/27 14:31:27;;;;;;;3.97;2.45;;;20.40;99.90;;;21.43;77.42;100328.19;5985179;24;20008;-88
2021/09/27 14:33:55;;;;;;;3.53;2.08;;;20.50;99.90;;;21.57;77.11;100339.25;5984197;24;20013;-87
2021/09/27 14:36:22;;;;;;;2.20;1.88;;;20.50;99.90;;;21.67;76.56;100352.41;5984098;24;20096;-83
2021/09/27 14:38:50;;;;;;;2.67;2.15;;;20.50;99.90;;;21.75;76.29;100345.31;5983086;24;20016;-87
2021/09/27 14:41:19;;;;;;;3.67;2.10;;;20.60;99.90;;;21.85;75.36;100349.94;5991803;23;20031;-80
2021/09/27 14:43:50;;;;;;;4.05;1.70;;;20.60;99.90;;;22.08;74.53;100359.59;6006707;23;20000;-87
2021/09/27 14:46:19;;;;;;;2.85;2.08;;;20.70;99.90;;;21.98;74.19;100350.06;5984344;24;20511;-87
2021/09/27 14:48:45;;;;;;;5.53;2.20;;;20.70;99.90;;;22.12;73.68;100355.44;5960575;24;20012;-84
2021/09/27 14:51:11;;;;;;;4.43;2.10;;;20.80;99.90;;;22.06;74.06;100354.34;5985321;24;20016;-87
2021/09/27 14:53:38;;;;;;;3.72;1.98;;;20.80;99.90;;;22.01;73.65;100346.34;5983273;24;20042;-84
2021/09/27 14:56:04;;;;;;;5.05;2.00;;;20.70;99.90;;;21.91;75.26;100359.56;5983805;24;20008;-87
2021/09/27 14:58:33;;;;;;;3.33;1.90;;;20.70;99.90;;;21.69;76.83;100349.13;5986308;24;20454;-85
2021/09/27 15:01:05;;;;;;;5.88;2.30;;;20.60;99.90;;;21.36;78.60;100346.19;5986386;24;20020;-84
2021/09/27 15:03:31;;;;;;;3.90;2.15;;;20.40;99.90;;;21.37;77.73;100350.63;5983719;24;20029;-86
2021/09/27 15:05:58;;;;;;;4.53;2.15;;;20.30;99.90;;;21.32;78.55;100353.97;5990290;24;20016;-85
2021/09/27 15:08:24;;;;;;;3.17;2.38;;;20.30;99.90;;;21.44;77.87;100358.22;5990148;23;20027;-85
2021/09/27 15:10:53;;;;;;;4.00;2.00;;;20.40;99.90;;;21.61;78.46;100367.59;5984273;24;20083;-86
2021/09/27 15:13:21;;;;;;;3.17;1.83;;;20.50;99.90;;;21.47;79.18;100366.66;5985386;24;20498;-84
2021/09/27 15:15:52;;;;;;;4.18;2.20;;;20.40;99.90;;;21.13;81.01;100371.81;5983988;24;20100;-88
2021/09/27 15:18:27;;;;;;;2.78;2.13;;;20.30;99.90;;;20.98;80.01;100370.50;5984330;24;20123;-86
2021/09/27 15:20:57;;;;;;;4.18;2.28;;;20.10;99.90;;;21.13;79.17;100374.66;5985037;24;20019;-87
2021/09/27 15:23:31;;;;;;;6.07;2.65;;;20.10;99.90;;;21.15;79.26;100377.88;5984238;24;20014;-84
2021/09/27 15:26:10;;;;;;;4.90;2.10;;;20.10;99.90;;;21.14;79.17;100373.44;5983274;24;20072;-88
2021/09/27 15:28:39;;;;;;;2.33;2.05;;;20.10;99.90;;;21.20;79.01;100368.03;5983281;24;20386;-86
2021/09/27 15:31:12;;;;;;;3.92;2.40;;;20.00;99.90;;;21.05;78.69;100384.56;5982809;24;20035;-87
2021/09/27 15:33:44;;;;;;;3.83;1.88;;;20.10;99.90;;;21.08;78.18;100382.88;5982986;24;20075;-88
2021/09/27 15:36:14;;;;;;;6.45;2.72;;;20.00;99.90;;;20.78;78.70;100378.97;5984407;24;20015;-89
2021/09/27 15:38:47;;;;;;;2.65;1.98;;;19.90;99.90;;;20.75;79.46;100385.53;5967928;24;20075;-88
2021/09/27 15:41:14;;;;;;;2.83;1.95;;;19.80;99.90;;;20.65;80.36;100386.50;5991790;24;20034;-86
2021/09/27 15:43:41;;;;;;;4.93;2.05;;;19.60;99.90;;;20.47;81.66;100392.53;5994659;24;20008;-84
2021/09/27 15:46:08;;;;;;;3.35;2.20;;;19.50;99.90;;;20.42;80.99;100395.84;5996631;24;20018;-88
2021/09/27 15:48:35;;;;;;;5.07;2.13;;;19.40;99.90;;;20.39;78.37;100399.53;5985559;24;20338;-85
2021/09/27 15:51:01;;;;;;;4.53;1.98;;;19.40;99.90;;;20.36;78.01;100410.94;5984077;24;20080;-87
2021/09/27 15:53:28;;;;;;;4.20;1.60;;;19.40;99.90;;;20.21;77.65;100406.72;5985707;24;20015;-85
2021/09/27 15:55:55;;;;;;;4.13;2.00;;;19.30;99.90;;;20.39;77.41;100410.88;5986142;24;20028;-84
2021/09/27 15:58:22;;;;;;;3.22;1.80;;;19.30;99.90;;;20.49;76.31;100407.06;5988053;24;20012;-84
2021/09/27 16:00:49;;;;;;;3.00;1.60;;;19.40;99.90;;;20.58;75.86;100420.69;5985306;24;20020;-87
2021/09/27 16:03:16;;;;;;;3.13;1.63;;;19.50;99.90;;;20.59;76.30;100427.16;5986274;24;20065;-87
2021/09/27 16:05:44;;;;;;;4.70;1.60;;;19.40;99.90;;;20.45;78.18;100431.84;5988475;24;20103;-85
2021/09/27 16:08:11;;;;;;;5.20;1.77;;;19.30;99.90;;;20.04;80.77;100427.63;5965598;24;20145;-88
2021/09/27 16:10:37;;;;;;;1.65;1.52;;;19.10;99.90;;;19.92;82.56;100446.03;5988695;24;20008;-84
2021/09/27 16:13:04;;;;;;;2.70;1.80;;;18.90;99.90;;;19.67;85.30;100440.72;5990342;24;20008;-84
2021/09/27 16:15:36;;;;;;;4.05;1.75;;;18.60;99.90;;;19.48;87.99;100440.56;5990883;24;20061;-87
2021/09/27 16:18:12;;;;;;;3.13;2.22;;;18.40;99.90;;;19.28;91.36;100437.53;5988630;24;20076;-86
2021/09/27 16:20:40;;;;;;;2.65;2.03;;;18.20;99.90;;;18.90;93.39;100431.88;5968809;24;20458;-83
2021/09/27 16:23:07;;;;;;;8.30;2.35;;;17.90;99.90;;;18.68;95.90;100433.31;5965018;24;20031;-85
2021/09/27 16:25:35;;;;;;;6.88;2.72;;;17.80;99.90;;;18.67;96.77;100439.38;5989328;24;20087;-87
2021/09/27 16:28:04;;;;;;;4.53;2.50;;;17.60;99.90;;;18.64;96.52;100429.72;5990401;24;20012;-83
2021/09/27 16:30:31;;;;;;;4.03;2.42;;;17.50;99.90;;;18.75;96.27;100429.63;5989749;23;20035;-84
2021/09/27 16:32:58;;;;;;;4.10;2.65;;;17.50;99.90;;;18.67;96.39;100433.72;5964920;24;20028;-85
2021/09/27 16:35:28;;;;;;;5.65;2.72;;;17.50;99.90;;;18.65;97.76;100433.34;5965175;24;20005;-86
2021/09/27 16:37:55;;;;;;;5.03;2.53;;;17.40;99.90;;;18.62;98.18;100439.84;5991709;24;20013;-86
2021/09/27 16:40:22;;;;;;;5.22;2.80;;;17.40;99.90;;;18.60;99.06;100431.75;5990092;24;20012;-83
2021/09/27 16:42:49;;;;;;;3.95;2.67;;;17.40;99.90;;;18.58;99.53;100434.22;5989906;24;20040;-82
2021/09/27 16:45:15;;;;;;;6.20;2.88;;;17.30;99.90;;;18.57;99.43;100428.97;5965968;24;20012;-87
2021/09/27 16:47:41;;;;;;;7.78;2.95;;;17.40;99.90;;;18.54;100.00;100430.59;5990779;24;20012;-83
2021/09/27 16:50:09;;;;;;;5.63;3.05;;;17.40;99.90;;;18.70;99.36;100432.88;5989197;24;20102;-87
2021/09/27 16:52:35;;;;;;;5.07;2.53;;;17.40;99.90;;;18.54;100.00;100432.63;5988175;24;20027;-86
2021/09/27 16:55:05;;;;;;;4.80;3.08;;;17.40;99.90;;;18.53;100.00;100436.66;5988775;24;20039;-86
2021/09/27 16:57:31;;;;;;;6.25;2.95;;;17.40;99.90;;;18.56;100.00;100436.63;5967355;24;20012;-86
2021/09/27 16:59:59;;;;;;;6.47;3.05;;;17.40;99.90;;;18.43;99.74;100432.69;5989620;24;20033;-88
2021/09/27 17:02:27;;;;;;;4.63;2.47;;;17.40;99.90;;;18.47;99.17;100441.13;5989138;23;20072;-88
2021/09/27 17:04:53;;;;;;;4.68;2.22;;;17.40;99.90;;;18.40;98.73;100439.97;5989815;24;20012;-85
2021/09/27 17:07:21;;;;;;;6.28;2.15;;;17.40;99.90;;;18.50;98.16;100443.16;5988006;24;20011;-84
2021/09/27 17:09:50;;;;;;;3.75;2.00;;;17.40;99.90;;;18.48;98.99;100443.56;5989774;24;20298;-85
2021/09/27 17:12:17;;;;;;;5.85;2.60;;;17.30;99.90;;;18.41;99.29;100440.78;5993828;23;20060;-89
2021/09/27 17:20:32;;;;;;;3.78;2.25;;;17.20;99.90;;;18.40;99.37;100450.47;5988769;24;20111;-87
2021/09/27 17:23:12;;;;;;;4.78;2.60;;;17.20;99.90;;;18.44;99.50;100460.56;5963863;24;20011;-88
2021/09/27 17:25:41;;;;;;;3.10;2.60;;;17.20;99.90;;;18.36;100.00;100466.69;5984299;24;20012;-89
2021/09/27 17:28:17;;;;;;;4.45;2.70;;;17.20;99.90;;;18.43;100.00;100484.38;5983953;24;20095;-88
2021/09/27 17:30:45;;;;;;;;;;;17.20;99.90;;;18.39;100.00;100491.31;5985823;24;20019;-89
2021/09/27 17:33:13;;;;;;;5.35;2.78;;;17.20;99.90;;;18.38;100.00;100544.22;5985974;24;19910;-88
2021/09/27 17:35:43;;;;;;;6.20;1.85;;;17.10;99.90;;;17.92;100.00;100551.34;5987135;24;20407;-89
2021/09/27 17:38:10;;;;;;;6.30;1.00;;;16.90;99.90;;;17.42;100.00;100571.22;5987725;24;20024;-86
2021/09/27 17:40:37;;;;;;;2.33;1.10;;;16.60;99.90;;;17.09;100.00;100574.50;6004851;24;20009;-85
2021/09/27 17:43:03;;;;;;;3.88;1.10;;;16.20;99.90;;;16.67;100.00;100587.38;5988682;24;20103;-88
2021/09/27 17:45:29;;;;;;;2.38;0.95;;;15.80;99.90;;;16.37;100.00;100608.63;5985302;24;20068;-87
2021/09/27 17:47:56;;;;;;;1.48;0.98;;;15.50;99.90;;;16.16;100.00;100620.63;5960634;24;20043;-85
2021/09/27 17:50:26;;;;;;;2.15;0.90;;;15.20;99.90;;;15.92;100.00;100626.97;5985569;24;20012;-85
2021/09/27 17:52:56;;;;;;;2.80;1.30;;;15.00;99.90;;;15.89;100.00;100631.41;5987982;24;20028;-86
2021/09/27 17:55:23;;;;;;;2.30;1.27;;;14.80;99.90;;;15.78;100.00;100636.16;5986046;24;20084;-88
2021/09/27 17:57:50;;;;;;;2.80;1.38;;;14.70;99.90;;;15.76;100.00;100632.94;5984805;24;20518;-87
2021/09/27 18:00:17;;;;;;;3.63;1.27;;;14.60;99.90;;;15.57;100.00;100630.41;5984159;24;20009;-85
2021/09/27 18:02:45;;;;;;;6.78;2.22;;;14.50;99.90;;;15.60;100.00;100626.81;5986707;24;20091;-85
2021/09/27 18:05:15;;;;;;;4.10;1.27;;;14.40;99.90;;;15.59;100.00;100647.69;5986060;24;20020;-85
2021/09/27 18:07:41;;;;;;;3.72;1.08;;;14.40;99.90;;;15.62;100.00;100647.72;5986299;24;20041;-85
2021/09/27 18:10:09;;;;;;;1.80;1.05;;;14.40;99.90;;;15.50;100.00;100635.97;5985708;24;20047;-86
2021/09/27 18:12:36;;;;;;;3.30;1.40;;;14.40;99.90;;;15.57;100.00;100636.81;5987236;24;20012;-87
2021/09/27 18:15:13;;;;;;;3.53;1.75;;;14.30;99.90;;;15.50;100.00;100650.06;5985195;24;20018;-87
2021/09/27 18:17:39;;;;;;;3.45;1.50;;;14.30;99.90;;;15.48;100.00;100647.63;5991859;24;20040;-85
2021/09/27 18:20:11;;;;;;;2.55;1.42;;;14.30;99.90;;;15.38;100.00;100645.50;5985077;24;20494;-84
2021/09/27 18:22:39;;;;;;;2.97;1.75;;;14.30;99.90;;;15.51;100.00;100646.06;5986315;24;20079;-86
2021/09/27 18:25:11;;;;;;;3.90;1.77;;;14.30;99.90;;;15.47;100.00;100648.81;5986484;24;20012;-85
2021/09/27 18:27:39;;;;;;;3.10;1.55;;;14.30;99.90;;;15.57;100.00;100664.19;5960715;24;20043;-86
2021/09/27 18:30:13;;;;;;;2.65;1.63;;;14.30;99.90;;;15.61;100.00;100679.06;5966791;24;20019;-85
2021/09/27 18:32:39;;;;;;;5.43;2.00;;;14.40;99.90;;;15.49;100.00;100682.22;5985872;24;20035;-87
2021/09/27 18:35:09;;;;;;;6.82;2.47;;;14.30;99.90;;;15.51;100.00;100677.00;5986604;24;20019;-86
2021/09/27 18:37:38;;;;;;;6.65;2.60;;;14.30;99.90;;;15.38;100.00;100673.63;5965043;24;20016;-83
2021/09/27 18:40:10;;;;;;;4.10;1.95;;;14.30;99.90;;;15.52;100.00;100681.44;5994611;24;20021;-86
2021/09/27 18:42:36;;;;;;;6.18;2.80;;;14.30;99.90;;;15.60;100.00;100683.09;5992435;24;20020;-85
2021/09/27 18:45:07;;;;;;;6.65;2.53;;;14.40;99.90;;;15.45;100.00;100695.41;5990133;24;20013;-83
2021/09/27 18:47:35;;;;;;;8.00;2.45;;;14.30;99.90;;;15.34;100.00;100697.34;5988013;24;20012;-87
2021/09/27 18:50:01;;;;;;;7.45;2.40;;;14.30;99.90;;;15.47;100.00;100693.03;5989027;24;20016;-87
2021/09/27 18:52:30;;;;;;;6.85;2.42;;;14.30;99.90;;;15.49;100.00;100699.09;5990865;24;20019;-86
2021/09/27 18:55:00;;;;;;;5.72;2.08;;;14.30;99.90;;;15.49;100.00;100702.72;5965375;24;20060;-88
2021/09/27 18:57:26;;;;;;;4.72;2.50;;;14.30;99.90;;;15.49;100.00;100701.91;5988114;24;20024;-86
2021/09/27 18:59:51;;;;;;;6.10;2.05;;;14.30;99.90;;;15.47;100.00;100701.47;5987986;24;20442;-86
2021/09/27 19:02:17;;;;;;;5.00;2.20;;;14.30;99.90;;;15.30;100.00;100717.81;5986357;24;20023;-85
2021/09/27 19:04:46;;;;;;;5.22;1.80;;;14.30;99.90;;;15.36;100.00;100728.69;5984085;24;20013;-86
2021/09/27 19:07:11;;;;;;;6.15;1.90;;;14.20;99.90;;;15.36;100.00;100732.34;5983157;24;20056;-84
2021/09/27 19:09:40;;;;;;;4.13;2.05;;;14.10;99.90;;;15.26;100.00;100738.66;5985567;24;20088;-85
2021/09/27 19:12:10;;;;;;;7.65;2.90;;;14.10;99.90;;;15.34;100.00;100745.19;5990947;23;20016;-84
2021/09/27 19:14:36;;;;;;;4.22;2.05;;;14.10;99.90;;;15.32;100.00;100749.19;6099264;23;20011;-88
2021/09/27 19:17:03;;;;;;;5.97;2.28;;;14.10;99.90;;;15.34;100.00;100756.44;6083186;23;20013;-85
2021/09/27 19:19:29;;;;;;;4.38;1.98;;;14.10;99.90;;;15.29;100.00;100764.03;6088851;23;20271;-87
2021/09/27 19:21:55;;;;;;;4.13;2.05;;;14.10;99.90;;;15.31;100.00;100767.25;6100143;23;20014;-86
2021/09/27 19:24:25;;;;;;;4.22;2.20;;;14.10;99.90;;;15.23;100.00;100773.22;6073825;23;20014;-85
2021/09/27 19:26:51;;;;;;;4.18;1.92;;;14.00;99.90;;;15.22;100.00;100774.41;6073343;23;20006;-87
2021/09/27 19:29:19;;;;;;;5.60;2.20;;;14.00;99.90;;;15.13;100.00;100766.28;6098565;23;20006;-85
2021/09/27 19:31:45;;;;;;;6.65;2.30;;;13.90;99.90;;;15.20;100.00;100768.34;6076075;23;20014;-86
2021/09/27 19:34:14;;;;;;;4.40;2.20;;;14.00;99.90;;;15.17;100.00;100780.38;6100512;23;20017;-85
2021/09/27 19:36:40;;;;;;;7.47;2.47;;;14.00;99.90;;;15.24;100.00;100797.34;6101318;23;20062;-86
2021/09/27 19:39:11;;;;;;;12.63;2.40;;;14.00;99.90;;;15.17;100.00;100800.91;6101481;23;20026;-86
2021/09/27 19:41:37;;;;;;;5.88;2.40;;;13.90;99.90;;;15.12;100.00;100795.59;6076162;23;20006;-85
2021/09/27 19:44:08;;;;;;;8.90;2.58;;;14.00;99.90;;;15.15;100.00;100811.72;6076353;23;20010;-87
2021/09/27 19:46:41;;;;;;;6.25;2.90;;;13.90;99.90;;;15.13;100.00;100819.72;6076164;23;20127;-86
2021/09/27 19:49:08;;;;;;;9.43;2.83;;;13.90;99.90;;;14.93;100.00;100812.66;6077549;23;20026;-87
2021/09/27 19:51:35;;;;;;;9.10;2.50;;;13.90;99.90;;;15.11;100.00;100827.75;6102406;23;20034;-87
2021/09/27 19:54:04;;;;;;;7.72;3.10;;;13.90;99.90;;;15.05;100.00;100818.03;6075980;23;20325;-88
2021/09/27 19:56:30;;;;;;;9.23;2.90;;;13.90;99.90;;;15.03;100.00;100826.03;6074949;23;20066;-86
2021/09/27 19:59:03;;;;;;;8.93;3.05;;;13.90;99.90;;;15.15;100.00;100834.25;6075516;23;20014;-88
2021/09/27 20:01:30;;;;;;;8.00;2.85;;;14.00;99.90;;;15.11;100.00;100836.19;6075661;23;20038;-84
2021/09/27 20:03:59;;;;;;;7.85;2.47;;;13.90;99.90;;;15.14;100.00;100835.44;6074711;23;20006;-85
2021/09/27 20:06:25;;;;;;;6.43;2.45;;;13.90;99.90;;;15.12;100.00;100845.44;6075853;23;20034;-85
2021/09/27 20:08:54;;;;;;;7.32;2.83;;;13.90;99.90;;;15.15;100.00;100845.50;6075299;23;20098;-87
2021/09/27 20:11:20;;;;;;;7.07;1.85;;;13.90;99.90;;;15.15;100.00;100845.50;6075215;23;20021;-84
2021/09/27 20:13:46;;;;;;;7.57;2.55;;;13.90;99.90;;;15.10;100.00;100859.06;6100284;23;20034;-86
2021/09/27 20:16:16;;;;;;;6.28;2.65;;;13.90;99.90;;;14.96;100.00;100859.69;6075117;23;20021;-82
2021/09/27 20:18:43;;;;;;;8.75;3.15;;;13.80;99.90;;;14.87;100.00;100864.81;6076715;23;20007;-85
2021/09/27 20:21:11;;;;;;;9.15;3.10;;;13.80;99.90;;;14.93;100.00;100866.09;6075431;23;20014;-84
2021/09/27 20:23:39;;;;;;;8.38;3.25;;;13.70;99.90;;;14.85;100.00;100870.03;6100225;23;20096;-88
2021/09/27 20:26:08;;;;;;;8.45;3.33;;;13.70;99.90;;;14.88;100.00;100880.50;6098952;23;20007;-85
2021/09/27 20:28:34;;;;;;;10.25;3.53;;;13.70;99.90;;;14.73;100.00;100873.88;6075103;23;20010;-86
2021/09/27 20:31:00;;;;;;;11.30;3.53;;;13.60;99.90;;;14.70;100.00;100876.66;6073866;23;20045;-87
2021/09/27 20:33:28;;;;;;;8.30;3.40;;;13.60;99.90;;;14.69;100.00;100891.88;6073682;23;20010;-87
2021/09/27 20:35:56;;;;;;;10.23;3.83;;;13.60;99.90;;;14.73;100.00;100884.31;6072720;23;20021;-86
2021/09/27 20:38:24;;;;;;;11.77;4.55;;;13.60;99.90;;;14.81;100.00;100893.66;6073181;23;20013;-85
2021/09/27 20:40:53;;;;;;;12.25;5.07;;;13.60;99.90;;;14.82;100.00;100893.28;6072646;23;20014;-85
2021/09/27 20:43:20;;;;;;;9.88;4.70;;;13.70;99.90;;;14.86;100.00;100899.78;6072430;23;20229;-86
2021/09/27 20:45:47;;;;;;;9.57;4.88;;;13.70;99.90;;;14.80;100.00;100897.66;6098124;23;20445;-86
2021/09/27 20:48:16;;;;;;;16.60;6.07;;;13.60;99.90;;;14.78;100.00;100912.09;6072340;23;20011;-87
2021/09/27 20:50:46;;;;;;;12.52;5.50;;;13.60;99.90;;;14.73;100.00;100913.25;6100328;23;20030;-87
2021/09/27 20:53:13;;;;;;;14.07;5.38;;;13.60;99.90;;;14.68;100.00;100926.81;6078090;23;19999;-83
2021/09/27 20:55:39;;;;;;;10.57;5.45;;;13.50;99.90;;;14.69;100.00;100926.44;6076539;23;20013;-84
2021/09/27 20:58:06;;;;;;;15.65;5.88;;;13.50;99.90;;;14.62;100.00;100926.31;6075783;23;20411;-86
2021/09/27 21:00:38;;;;;;;14.75;6.57;;;13.50;99.90;;;14.63;100.00;100924.34;6078008;23;20365;-85
2021/09/27 21:03:05;;;;;;;14.25;7.20;;;13.50;99.90;;;14.57;100.00;100931.47;6073887;23;20016;-84
2021/09/27 21:05:33;;;;;;;10.30;6.22;;;13.40;99.90;;;14.52;100.00;100937.41;6101938;23;20006;-83
2021/09/27 21:08:01;;;;;;;14.63;6.70;;;13.40;99.90;;;14.53;100.00;100937.03;6073595;23;20443;-86
2021/09/27 21:10:32;;;;;;;17.30;8.00;;;13.30;99.90;;;14.48;100.00;100945.78;6106539;23;19994;-85
2021/09/27 21:12:59;;;;;;;16.27;8.05;;;13.30;99.90;;;14.45;100.00;100954.97;6096979;23;20014;-84
2021/09/27 21:15:27;;;;;;;18.90;8.55;;;13.30;99.90;;;14.38;100.00;100956.88;6104107;23;20018;-86
2021/09/27 21:17:54;;;;;;;19.30;8.40;;;13.30;99.90;;;14.32;100.00;100953.50;6074147;23;20017;-89
2021/09/27 21:20:23;;;;;;;14.27;8.55;;;13.20;99.90;;;14.34;100.00;100962.41;6074339;23;20376;-87
2021/09/27 21:22:51;;;;;;;18.23;8.95;;;13.20;99.90;;;14.35;100.00;100968.84;6100168;23;20009;-86
2021/09/27 21:25:18;;;;;;;14.32;9.00;;;13.20;99.90;;;14.32;100.00;100973.19;6075637;23;20026;-84
2021/09/27 21:27:47;;;;;;;14.73;8.02;;;13.20;99.90;;;14.34;100.00;100968.03;6081099;23;20093;-88
2021/09/27 21:30:17;;;;;;;15.30;8.00;;;13.20;99.90;;;14.25;100.00;100968.25;6074269;23;20011;-87
2021/09/27 21:32:44;;;;;;;18.75;9.45;;;13.20;99.90;;;14.21;100.00;100975.81;6073337;23;20340;-88
2021/09/27 21:35:10;;;;;;;17.27;8.30;;;13.10;99.90;;;14.24;100.00;100977.88;6073596;23;20109;-87
2021/09/27 21:37:36;;;;;;;22.95;8.88;;;13.10;99.90;;;14.24;100.00;100993.91;6073379;23;20503;-87
2021/09/27 21:40:07;;;;;;;18.85;8.18;;;13.10;99.90;;;14.14;100.00;100992.53;6075910;23;20006;-87
2021/09/27 21:42:33;;;;;;;19.90;9.18;;;13.00;99.90;;;14.14;100.00;100995.34;6074230;23;20017;-86
2021/09/27 21:45:00;;;;;;;16.92;8.35;;;13.00;99.90;;;14.14;100.00;100992.53;6074105;23;20201;-88
2021/09/27 21:47:26;;;;;;;15.90;7.90;;;13.00;99.90;;;14.11;100.00;100990.50;6099526;23;20089;-88
2021/09/27 21:49:52;;;;;;;19.83;7.55;;;13.00;99.90;;;14.05;100.00;100992.00;6073226;23;20017;-88
2021/09/27 21:52:17;;;;;;;19.70;8.05;;;12.90;99.90;;;14.02;100.00;100998.34;6073262;23;20093;-84
2021/09/27 21:54:46;;;;;;;19.88;7.10;;;12.90;99.90;;;14.06;100.00;100998.41;6073414;23;20399;-87
2021/09/27 21:57:12;;;;;;;19.95;7.00;;;13.00;99.90;;;14.06;100.00;101007.63;6084562;23;20081;-88
2021/09/27 21:59:38;;;;;;;17.27;8.23;;;12.90;99.90;;;14.02;100.00;101009.59;6075233;23;20010;-87
2021/09/27 22:02:04;;;;;;;19.20;6.90;;;12.90;99.90;;;14.07;100.00;101008.44;6103809;23;20010;-88
2021/09/27 22:04:29;;;;;;;18.67;7.25;;;12.90;99.90;;;14.01;100.00;101021.19;6081774;23;20074;-87
2021/09/27 22:07:00;;;;;;;16.20;8.13;;;12.80;99.90;;;13.99;100.00;101018.75;6084555;23;20014;-85
2021/09/27 22:09:27;;;;;;;26.15;7.80;;;12.90;99.90;;;13.99;100.00;101023.56;6074852;23;20310;-84
2021/09/27 22:11:53;;;;;;;20.75;7.85;;;12.90;99.90;;;14.04;100.00;101024.06;6099730;23;20010;-87
2021/09/27 22:14:19;;;;;;;17.85;6.60;;;12.90;99.90;;;14.06;100.00;101030.09;6097904;23;20017;-87
2021/09/27 22:16:45;;;;;;;14.10;5.78;;;12.90;99.90;;;14.07;100.00;101030.91;6073093;23;20397;-86
2021/09/27 22:19:11;;;;;;;16.95;5.80;;;12.90;99.90;;;14.03;100.00;101030.84;6098953;23;20070;-87
2021/09/27 22:21:38;;;;;;;16.75;6.47;;;12.80;99.90;;;13.94;100.00;101024.66;6073160;23;20041;-87
2021/09/27 22:24:04;;;;;;;19.38;7.13;;;12.80;99.90;;;13.92;100.00;101026.22;6072215;23;20003;-88
2021/09/27 22:26:32;;;;;;;15.55;7.03;;;12.80;99.90;;;13.91;100.00;101036.63;6098780;23;20041;-88